sensor_id;sensor_type;location;lat;lon;timestamp;temperature;humidity
51655;DHT22;37732;53.106;7.030;2022-08-02T00:01:40;12.20;99.90
51655;DHT22;37732;53.106;7.030;2022-08-02T00:04:06;12.20;99.90
51655;DHT22;37732;53.106;7.030;2022-08-02T00:06:32;12.10;99.90
51655;DHT22;37732;53.106;7.030;2022-08-02T00:08:58;12.00;99.90
51655;DHT22;37732;53.106;7.030;2022-08-02T00:11:24;12.20;99.90
51655;DHT22;37732;53.106;7.030;2022-08-02T00:13:49;12.00;99.90
51655;DHT22;37732;53.106;7.030;2022-08-02T00:16:15;11.90;99.90
51655;DHT22;37732;53.106;7.030;2022-08-02T00:18:41;12.60;99.90
51655;DHT22;37732;53.106;7.030;2022-08-02T00:21:06;11.80;99.90
51655;DHT22;37732;53.106;7.030;2022-08-02T00:23:32;12.10;99.90
51655;DHT22;37732;53.106;7.030;2022-08-02T00:25:58;11.90;99.90
51655;DHT22;37732;53.106;7.030;2022-08-02T00:28:24;11.80;99.90
51655;DHT22;37732;53.106;7.030;2022-08-02T00:30:50;12.00;99.90
51655;DHT22;37732;53.106;7.030;2022-08-02T00:33:16;11.80;99.90
51655;DHT22;37732;53.106;7.030;2022-08-02T00:35:42;12.00;99.90
51655;DHT22;37732;53.106;7.030;2022-08-02T00:38:08;11.90;99.90
51655;DHT22;37732;53.106;7.030;2022-08-02T00:40:33;11.90;99.90
51655;DHT22;37732;53.106;7.030;2022-08-02T00:43:10;11.80;99.90
51655;DHT22;37732;53.106;7.030;2022-08-02T00:45:37;12.00;99.90
51655;DHT22;37732;53.106;7.030;2022-08-02T00:48:05;12.00;99.90
51655;DHT22;37732;53.106;7.030;2022-08-02T00:50:32;11.60;99.90
51655;DHT22;37732;53.106;7.030;2022-08-02T00:52:58;11.60;99.90
51655;DHT22;37732;53.106;7.030;2022-08-02T00:55:25;12.00;99.90
51655;DHT22;37732;53.106;7.030;2022-08-02T00:57:51;11.50;99.90
51655;DHT22;37732;53.106;7.030;2022-08-02T01:00:17;11.40;99.90
51655;DHT22;37732;53.106;7.030;2022-08-02T01:02:43;11.50;99.90
51655;DHT22;37732;53.106;7.030;2022-08-02T01:05:09;11.50;99.90
51655;DHT22;37732;53.106;7.030;2022-08-02T01:07:35;11.40;99.90
51655;DHT22;37732;53.106;7.030;2022-08-02T01:10:00;11.50;99.90
51655;DHT22;37732;53.106;7.030;2022-08-02T01:12:26;11.80;99.90
51655;DHT22;37732;53.106;7.030;2022-08-02T01:14:55;11.50;99.90
51655;DHT22;37732;53.106;7.030;2022-08-02T01:30:42;11.50;99.90
51655;DHT22;37732;53.106;7.030;2022-08-02T01:33:10;11.40;99.90
51655;DHT22;37732;53.106;7.030;2022-08-02T01:35:41;11.40;99.90
51655;DHT22;37732;53.106;7.030;2022-08-02T01:38:20;11.70;99.90
51655;DHT22;37732;53.106;7.030;2022-08-02T01:40:47;11.40;99.90
51655;DHT22;37732;53.106;7.030;2022-08-02T01:43:14;11.60;99.90
51655;DHT22;37732;53.106;7.030;2022-08-02T01:45:42;11.40;99.90
51655;DHT22;37732;53.106;7.030;2022-08-02T01:48:09;11.30;99.90
51655;DHT22;37732;53.106;7.030;2022-08-02T01:50:36;11.30;99.90
51655;DHT22;37732;53.106;7.030;2022-08-02T01:53:05;11.30;99.90
51655;DHT22;37732;53.106;7.030;2022-08-02T01:55:39;11.40;99.90
51655;DHT22;37732;53.106;7.030;2022-08-02T01:58:06;11.30;99.90
51655;DHT22;37732;53.106;7.030;2022-08-02T02:00:36;11.20;99.90
51655;DHT22;37732;53.106;7.030;2022-08-02T02:03:05;10.80;99.90
51655;DHT22;37732;53.106;7.030;2022-08-02T02:05:34;11.20;99.90
51655;DHT22;37732;53.106;7.030;2022-08-02T02:08:02;11.10;99.90
51655;DHT22;37732;53.106;7.030;2022-08-02T02:10:34;11.10;99.90
51655;DHT22;37732;53.106;7.030;2022-08-02T02:13:08;11.10;99.90
51655;DHT22;37732;53.106;7.030;2022-08-02T02:15:39;11.10;99.90
51655;DHT22;37732;53.106;7.030;2022-08-02T02:18:07;11.00;99.90
51655;DHT22;37732;53.106;7.030;2022-08-02T02:20:33;11.10;99.90
51655;DHT22;37732;53.106;7.030;2022-08-02T02:22:59;11.00;99.90
51655;DHT22;37732;53.106;7.030;2022-08-02T02:25:25;11.10;99.90
51655;DHT22;37732;53.106;7.030;2022-08-02T02:27:59;11.10;99.90
51655;DHT22;37732;53.106;7.030;2022-08-02T02:30:26;11.10;99.90
51655;DHT22;37732;53.106;7.030;2022-08-02T02:32:56;11.30;99.90
51655;DHT22;37732;53.106;7.030;2022-08-02T02:35:23;11.20;99.90
51655;DHT22;37732;53.106;7.030;2022-08-02T02:37:52;10.70;99.90
51655;DHT22;37732;53.106;7.030;2022-08-02T02:40:19;10.80;99.90
51655;DHT22;37732;53.106;7.030;2022-08-02T02:42:46;10.90;99.90
51655;DHT22;37732;53.106;7.030;2022-08-02T02:45:14;11.50;99.90
51655;DHT22;37732;53.106;7.030;2022-08-02T02:47:41;10.80;99.90
51655;DHT22;37732;53.106;7.030;2022-08-02T02:50:08;10.90;99.90
51655;DHT22;37732;53.106;7.030;2022-08-02T02:52:35;10.90;99.90
51655;DHT22;37732;53.106;7.030;2022-08-02T02:55:02;11.00;99.90
51655;DHT22;37732;53.106;7.030;2022-08-02T02:57:28;10.80;99.90
51655;DHT22;37732;53.106;7.030;2022-08-02T02:59:55;11.00;99.90
51655;DHT22;37732;53.106;7.030;2022-08-02T03:02:22;11.10;99.90
51655;DHT22;37732;53.106;7.030;2022-08-02T03:04:48;11.50;99.90
51655;DHT22;37732;53.106;7.030;2022-08-02T03:07:14;11.00;99.90
51655;DHT22;37732;53.106;7.030;2022-08-02T03:09:40;10.70;99.90
51655;DHT22;37732;53.106;7.030;2022-08-02T03:12:08;11.30;99.90
51655;DHT22;37732;53.106;7.030;2022-08-02T03:14:38;10.80;99.90
51655;DHT22;37732;53.106;7.030;2022-08-02T03:17:04;11.40;99.90
51655;DHT22;37732;53.106;7.030;2022-08-02T03:19:30;11.10;99.90
51655;DHT22;37732;53.106;7.030;2022-08-02T03:21:55;10.80;99.90
51655;DHT22;37732;53.106;7.030;2022-08-02T03:24:22;11.30;99.90
51655;DHT22;37732;53.106;7.030;2022-08-02T03:26:47;10.60;99.90
51655;DHT22;37732;53.106;7.030;2022-08-02T03:29:13;10.80;99.90
51655;DHT22;37732;53.106;7.030;2022-08-02T03:31:39;10.90;99.90
51655;DHT22;37732;53.106;7.030;2022-08-02T03:34:06;10.80;99.90
51655;DHT22;37732;53.106;7.030;2022-08-02T03:36:32;11.30;99.90
51655;DHT22;37732;53.106;7.030;2022-08-02T03:39:00;10.80;99.90
51655;DHT22;37732;53.106;7.030;2022-08-02T03:41:27;10.50;99.90
51655;DHT22;37732;53.106;7.030;2022-08-02T03:43:54;10.60;99.90
51655;DHT22;37732;53.106;7.030;2022-08-02T03:46:21;10.70;99.90
51655;DHT22;37732;53.106;7.030;2022-08-02T03:48:50;10.70;99.90
51655;DHT22;37732;53.106;7.030;2022-08-02T03:51:16;10.60;99.90
51655;DHT22;37732;53.106;7.030;2022-08-02T03:53:42;10.60;99.90
51655;DHT22;37732;53.106;7.030;2022-08-02T03:56:08;10.60;99.90
51655;DHT22;37732;53.106;7.030;2022-08-02T03:58:34;10.90;99.90
51655;DHT22;37732;53.106;7.030;2022-08-02T04:01:00;10.70;99.90
51655;DHT22;37732;53.106;7.030;2022-08-02T04:03:26;10.60;99.90
51655;DHT22;37732;53.106;7.030;2022-08-02T04:05:52;10.80;99.90
51655;DHT22;37732;53.106;7.030;2022-08-02T04:08:18;10.90;99.90
51655;DHT22;37732;53.106;7.030;2022-08-02T04:10:44;10.90;99.90
51655;DHT22;37732;53.106;7.030;2022-08-02T04:13:34;10.80;99.90
51655;DHT22;37732;53.106;7.030;2022-08-02T04:16:14;11.00;99.90
51655;DHT22;37732;53.106;7.030;2022-08-02T04:18:49;10.80;99.90
51655;DHT22;37732;53.106;7.030;2022-08-02T04:21:18;11.00;99.90
51655;DHT22;37732;53.106;7.030;2022-08-02T04:23:46;10.90;99.90
51655;DHT22;37732;53.106;7.030;2022-08-02T04:26:13;10.90;99.90
51655;DHT22;37732;53.106;7.030;2022-08-02T04:28:40;11.20;99.90
51655;DHT22;37732;53.106;7.030;2022-08-02T04:31:06;11.10;99.90
51655;DHT22;37732;53.106;7.030;2022-08-02T04:33:33;11.00;99.90
51655;DHT22;37732;53.106;7.030;2022-08-02T04:35:59;11.50;99.90
51655;DHT22;37732;53.106;7.030;2022-08-02T04:38:25;10.90;99.90
51655;DHT22;37732;53.106;7.030;2022-08-02T04:40:53;10.90;99.90
51655;DHT22;37732;53.106;7.030;2022-08-02T04:43:20;10.90;99.90
51655;DHT22;37732;53.106;7.030;2022-08-02T04:45:51;10.70;99.90
51655;DHT22;37732;53.106;7.030;2022-08-02T04:48:17;11.60;99.90
51655;DHT22;37732;53.106;7.030;2022-08-02T04:50:43;10.80;99.90
51655;DHT22;37732;53.106;7.030;2022-08-02T04:53:09;11.30;99.90
51655;DHT22;37732;53.106;7.030;2022-08-02T04:55:34;11.00;99.90
51655;DHT22;37732;53.106;7.030;2022-08-02T04:58:00;11.10;99.90
51655;DHT22;37732;53.106;7.030;2022-08-02T05:00:27;10.80;99.90
51655;DHT22;37732;53.106;7.030;2022-08-02T05:02:55;10.90;99.90
51655;DHT22;37732;53.106;7.030;2022-08-02T05:05:22;11.20;99.90
51655;DHT22;37732;53.106;7.030;2022-08-02T05:07:47;11.10;99.90
51655;DHT22;37732;53.106;7.030;2022-08-02T05:10:13;11.30;99.90
51655;DHT22;37732;53.106;7.030;2022-08-02T05:12:40;11.30;99.90
51655;DHT22;37732;53.106;7.030;2022-08-02T05:15:06;11.30;99.90
51655;DHT22;37732;53.106;7.030;2022-08-02T05:17:32;11.40;99.90
51655;DHT22;37732;53.106;7.030;2022-08-02T05:19:58;11.30;99.90
51655;DHT22;37732;53.106;7.030;2022-08-02T05:22:23;11.60;99.90
51655;DHT22;37732;53.106;7.030;2022-08-02T05:24:49;11.60;99.90
51655;DHT22;37732;53.106;7.030;2022-08-02T05:27:15;11.70;99.90
51655;DHT22;37732;53.106;7.030;2022-08-02T05:29:40;12.00;99.90
51655;DHT22;37732;53.106;7.030;2022-08-02T05:32:06;12.00;99.90
51655;DHT22;37732;53.106;7.030;2022-08-02T05:34:32;12.60;99.90
51655;DHT22;37732;53.106;7.030;2022-08-02T05:36:58;12.00;99.90
51655;DHT22;37732;53.106;7.030;2022-08-02T05:39:23;12.10;99.90
51655;DHT22;37732;53.106;7.030;2022-08-02T05:41:49;12.40;99.90
51655;DHT22;37732;53.106;7.030;2022-08-02T05:44:14;12.80;99.90
51655;DHT22;37732;53.106;7.030;2022-08-02T05:46:40;12.60;99.90
51655;DHT22;37732;53.106;7.030;2022-08-02T05:49:06;12.70;99.90
51655;DHT22;37732;53.106;7.030;2022-08-02T05:51:38;12.90;99.90
51655;DHT22;37732;53.106;7.030;2022-08-02T05:54:30;12.80;99.90
51655;DHT22;37732;53.106;7.030;2022-08-02T05:57:10;13.00;99.90
51655;DHT22;37732;53.106;7.030;2022-08-02T06:00:06;13.10;99.90
51655;DHT22;37732;53.106;7.030;2022-08-02T06:05:38;13.50;99.90
51655;DHT22;37732;53.106;7.030;2022-08-02T06:08:06;13.70;99.90
51655;DHT22;37732;53.106;7.030;2022-08-02T06:10:36;13.90;99.90
51655;DHT22;37732;53.106;7.030;2022-08-02T06:15:32;14.30;99.90
51655;DHT22;37732;53.106;7.030;2022-08-02T06:17:58;14.40;99.90
51655;DHT22;37732;53.106;7.030;2022-08-02T06:20:26;14.60;99.90
51655;DHT22;37732;53.106;7.030;2022-08-02T06:22:52;14.80;99.90
51655;DHT22;37732;53.106;7.030;2022-08-02T06:25:20;15.00;99.90
51655;DHT22;37732;53.106;7.030;2022-08-02T06:27:48;15.20;99.90
51655;DHT22;37732;53.106;7.030;2022-08-02T06:30:13;15.40;99.90
51655;DHT22;37732;53.106;7.030;2022-08-02T06:32:40;15.60;99.90
51655;DHT22;37732;53.106;7.030;2022-08-02T06:35:07;15.80;99.90
51655;DHT22;37732;53.106;7.030;2022-08-02T06:37:40;16.00;99.90
51655;DHT22;37732;53.106;7.030;2022-08-02T06:40:37;16.20;99.90
51655;DHT22;37732;53.106;7.030;2022-08-02T06:43:18;16.40;99.90
51655;DHT22;37732;53.106;7.030;2022-08-02T06:45:46;16.70;99.90
51655;DHT22;37732;53.106;7.030;2022-08-02T06:48:12;16.80;99.90
51655;DHT22;37732;53.106;7.030;2022-08-02T06:50:38;16.90;99.90
51655;DHT22;37732;53.106;7.030;2022-08-02T06:53:07;17.10;99.90
51655;DHT22;37732;53.106;7.030;2022-08-02T06:55:33;17.30;99.90
51655;DHT22;37732;53.106;7.030;2022-08-02T06:57:59;17.40;99.90
51655;DHT22;37732;53.106;7.030;2022-08-02T07:00:25;17.60;99.90
51655;DHT22;37732;53.106;7.030;2022-08-02T07:02:51;17.70;99.90
51655;DHT22;37732;53.106;7.030;2022-08-02T07:05:17;17.90;99.90
51655;DHT22;37732;53.106;7.030;2022-08-02T07:07:44;18.00;99.90
51655;DHT22;37732;53.106;7.030;2022-08-02T07:10:09;17.90;99.90
51655;DHT22;37732;53.106;7.030;2022-08-02T07:12:35;18.00;99.90
51655;DHT22;37732;53.106;7.030;2022-08-02T07:15:03;18.10;99.90
51655;DHT22;37732;53.106;7.030;2022-08-02T07:17:30;18.20;99.90
51655;DHT22;37732;53.106;7.030;2022-08-02T07:19:56;18.40;99.90
51655;DHT22;37732;53.106;7.030;2022-08-02T07:22:23;18.70;99.90
51655;DHT22;37732;53.106;7.030;2022-08-02T07:24:51;18.90;99.90
51655;DHT22;37732;53.106;7.030;2022-08-02T07:27:17;19.00;99.90
51655;DHT22;37732;53.106;7.030;2022-08-02T07:29:43;19.20;99.90
51655;DHT22;37732;53.106;7.030;2022-08-02T07:32:09;19.30;99.90
51655;DHT22;37732;53.106;7.030;2022-08-02T07:34:34;19.40;99.90
51655;DHT22;37732;53.106;7.030;2022-08-02T07:37:00;19.50;99.90
51655;DHT22;37732;53.106;7.030;2022-08-02T07:39:26;19.70;99.90
51655;DHT22;37732;53.106;7.030;2022-08-02T07:41:51;19.80;99.90
51655;DHT22;37732;53.106;7.030;2022-08-02T07:44:18;19.60;99.90
51655;DHT22;37732;53.106;7.030;2022-08-02T07:46:44;19.70;99.90
51655;DHT22;37732;53.106;7.030;2022-08-02T07:49:10;19.90;99.90
51655;DHT22;37732;53.106;7.030;2022-08-02T07:51:38;20.00;99.90
51655;DHT22;37732;53.106;7.030;2022-08-02T07:54:04;20.30;99.90
51655;DHT22;37732;53.106;7.030;2022-08-02T07:56:29;20.70;99.90
51655;DHT22;37732;53.106;7.030;2022-08-02T07:58:55;20.80;99.90
51655;DHT22;37732;53.106;7.030;2022-08-02T08:01:21;21.10;99.90
51655;DHT22;37732;53.106;7.030;2022-08-02T08:03:46;21.20;99.90
51655;DHT22;37732;53.106;7.030;2022-08-02T08:06:12;21.30;99.90
51655;DHT22;37732;53.106;7.030;2022-08-02T08:08:38;21.40;99.90
51655;DHT22;37732;53.106;7.030;2022-08-02T08:11:03;21.50;99.90
51655;DHT22;37732;53.106;7.030;2022-08-02T08:13:29;21.50;99.90
51655;DHT22;37732;53.106;7.030;2022-08-02T08:15:55;21.70;99.90
51655;DHT22;37732;53.106;7.030;2022-08-02T08:18:20;21.80;99.90
51655;DHT22;37732;53.106;7.030;2022-08-02T08:20:46;21.90;99.90
51655;DHT22;37732;53.106;7.030;2022-08-02T08:23:12;22.00;99.90
51655;DHT22;37732;53.106;7.030;2022-08-02T08:25:37;22.20;99.90
51655;DHT22;37732;53.106;7.030;2022-08-02T08:28:04;22.30;99.90
51655;DHT22;37732;53.106;7.030;2022-08-02T08:30:29;22.40;99.90
51655;DHT22;37732;53.106;7.030;2022-08-02T08:32:55;22.50;99.90
51655;DHT22;37732;53.106;7.030;2022-08-02T08:35:21;22.60;99.90
51655;DHT22;37732;53.106;7.030;2022-08-02T08:37:46;22.80;99.00
51655;DHT22;37732;53.106;7.030;2022-08-02T08:40:12;22.90;98.60
51655;DHT22;37732;53.106;7.030;2022-08-02T08:42:39;22.90;98.20
51655;DHT22;37732;53.106;7.030;2022-08-02T08:45:06;23.00;98.10
51655;DHT22;37732;53.106;7.030;2022-08-02T08:47:33;23.10;97.60
51655;DHT22;37732;53.106;7.030;2022-08-02T08:50:20;23.20;97.40
51655;DHT22;37732;53.106;7.030;2022-08-02T08:52:53;23.40;98.60
51655;DHT22;37732;53.106;7.030;2022-08-02T08:55:22;23.20;95.20
51655;DHT22;37732;53.106;7.030;2022-08-02T08:57:50;23.20;95.50
51655;DHT22;37732;53.106;7.030;2022-08-02T09:00:17;23.20;94.80
51655;DHT22;37732;53.106;7.030;2022-08-02T09:02:43;23.20;92.60
51655;DHT22;37732;53.106;7.030;2022-08-02T09:05:10;23.40;94.80
51655;DHT22;37732;53.106;7.030;2022-08-02T09:07:36;23.40;93.50
51655;DHT22;37732;53.106;7.030;2022-08-02T09:13:20;23.50;92.30
51655;DHT22;37732;53.106;7.030;2022-08-02T09:15:57;23.60;91.20
51655;DHT22;37732;53.106;7.030;2022-08-02T09:18:31;23.80;94.50
51655;DHT22;37732;53.106;7.030;2022-08-02T09:21:00;24.00;92.20
51655;DHT22;37732;53.106;7.030;2022-08-02T09:23:34;24.20;89.30
51655;DHT22;37732;53.106;7.030;2022-08-02T09:26:05;24.20;79.00
51655;DHT22;37732;53.106;7.030;2022-08-02T09:28:36;24.20;82.30
51655;DHT22;37732;53.106;7.030;2022-08-02T09:33:39;24.30;72.60
51655;DHT22;37732;53.106;7.030;2022-08-02T09:36:09;24.40;74.50
51655;DHT22;37732;53.106;7.030;2022-08-02T09:38:37;24.50;79.00
51655;DHT22;37732;53.106;7.030;2022-08-02T09:41:04;24.50;78.90
51655;DHT22;37732;53.106;7.030;2022-08-02T09:43:41;24.70;76.80
51655;DHT22;37732;53.106;7.030;2022-08-02T09:46:20;24.70;72.20
51655;DHT22;37732;53.106;7.030;2022-08-02T09:48:53;24.90;78.90
51655;DHT22;37732;53.106;7.030;2022-08-02T09:51:34;25.20;77.00
51655;DHT22;37732;53.106;7.030;2022-08-02T09:54:08;25.50;77.90
51655;DHT22;37732;53.106;7.030;2022-08-02T09:56:45;25.50;71.60
51655;DHT22;37732;53.106;7.030;2022-08-02T09:59:12;25.30;69.90
51655;DHT22;37732;53.106;7.030;2022-08-02T10:01:39;25.40;77.20
51655;DHT22;37732;53.106;7.030;2022-08-02T10:04:07;25.50;73.40
51655;DHT22;37732;53.106;7.030;2022-08-02T10:06:36;25.60;78.50
51655;DHT22;37732;53.106;7.030;2022-08-02T10:09:03;25.70;80.40
51655;DHT22;37732;53.106;7.030;2022-08-02T10:11:29;25.70;79.50
51655;DHT22;37732;53.106;7.030;2022-08-02T10:13:55;25.80;85.70
51655;DHT22;37732;53.106;7.030;2022-08-02T10:16:22;25.90;78.90
51655;DHT22;37732;53.106;7.030;2022-08-02T10:18:52;26.10;79.70
51655;DHT22;37732;53.106;7.030;2022-08-02T10:21:26;26.10;77.80
51655;DHT22;37732;53.106;7.030;2022-08-02T10:24:10;26.20;79.60
51655;DHT22;37732;53.106;7.030;2022-08-02T10:26:39;26.50;87.60
51655;DHT22;37732;53.106;7.030;2022-08-02T10:29:07;26.70;82.20
51655;DHT22;37732;53.106;7.030;2022-08-02T10:31:38;26.80;80.60
51655;DHT22;37732;53.106;7.030;2022-08-02T10:34:08;26.70;76.90
51655;DHT22;37732;53.106;7.030;2022-08-02T10:36:36;26.60;76.20
51655;DHT22;37732;53.106;7.030;2022-08-02T10:39:04;26.70;79.30
51655;DHT22;37732;53.106;7.030;2022-08-02T10:41:49;26.70;83.20
51655;DHT22;37732;53.106;7.030;2022-08-02T10:44:25;26.60;83.20
51655;DHT22;37732;53.106;7.030;2022-08-02T10:47:17;26.70;81.30
51655;DHT22;37732;53.106;7.030;2022-08-02T10:52:17;27.00;80.50
51655;DHT22;37732;53.106;7.030;2022-08-02T10:54:53;27.10;79.60
51655;DHT22;37732;53.106;7.030;2022-08-02T10:57:25;27.20;78.90
51655;DHT22;37732;53.106;7.030;2022-08-02T10:59:56;27.10;79.10
51655;DHT22;37732;53.106;7.030;2022-08-02T11:02:46;27.20;81.10
51655;DHT22;37732;53.106;7.030;2022-08-02T11:07:47;27.40;80.60
51655;DHT22;37732;53.106;7.030;2022-08-02T11:13:19;27.40;78.50
51655;DHT22;37732;53.106;7.030;2022-08-02T11:21:30;27.80;79.50
51655;DHT22;37732;53.106;7.030;2022-08-02T11:24:23;27.70;79.70
51655;DHT22;37732;53.106;7.030;2022-08-02T11:26:49;27.70;79.00
51655;DHT22;37732;53.106;7.030;2022-08-02T11:29:14;27.60;81.90
51655;DHT22;37732;53.106;7.030;2022-08-02T11:31:42;27.70;83.20
51655;DHT22;37732;53.106;7.030;2022-08-02T11:34:09;27.80;82.80
51655;DHT22;37732;53.106;7.030;2022-08-02T11:36:49;27.80;81.90
51655;DHT22;37732;53.106;7.030;2022-08-02T11:39:19;27.80;80.80
51655;DHT22;37732;53.106;7.030;2022-08-02T11:41:53;27.70;82.40
51655;DHT22;37732;53.106;7.030;2022-08-02T11:44:19;27.70;80.60
51655;DHT22;37732;53.106;7.030;2022-08-02T11:46:55;27.60;83.00
51655;DHT22;37732;53.106;7.030;2022-08-02T11:49:21;27.40;81.20
51655;DHT22;37732;53.106;7.030;2022-08-02T11:51:58;27.30;82.60
51655;DHT22;37732;53.106;7.030;2022-08-02T11:54:30;27.40;83.70
51655;DHT22;37732;53.106;7.030;2022-08-02T11:59:38;27.50;84.80
51655;DHT22;37732;53.106;7.030;2022-08-02T12:02:06;27.50;86.10
51655;DHT22;37732;53.106;7.030;2022-08-02T12:04:32;27.50;84.40
51655;DHT22;37732;53.106;7.030;2022-08-02T12:06:59;27.70;87.10
51655;DHT22;37732;53.106;7.030;2022-08-02T12:09:30;27.70;86.00
51655;DHT22;37732;53.106;7.030;2022-08-02T12:11:56;27.60;86.10
51655;DHT22;37732;53.106;7.030;2022-08-02T12:14:24;27.70;86.80
51655;DHT22;37732;53.106;7.030;2022-08-02T12:16:51;27.90;83.50
51655;DHT22;37732;53.106;7.030;2022-08-02T12:19:36;28.00;85.00
51655;DHT22;37732;53.106;7.030;2022-08-02T12:22:23;27.90;81.50
51655;DHT22;37732;53.106;7.030;2022-08-02T12:24:51;27.90;83.70
51655;DHT22;37732;53.106;7.030;2022-08-02T12:27:35;28.00;82.40
51655;DHT22;37732;53.106;7.030;2022-08-02T12:30:06;28.00;83.10
51655;DHT22;37732;53.106;7.030;2022-08-02T12:32:33;28.10;86.30
51655;DHT22;37732;53.106;7.030;2022-08-02T12:35:07;28.10;80.60
51655;DHT22;37732;53.106;7.030;2022-08-02T12:37:35;28.10;81.90
51655;DHT22;37732;53.106;7.030;2022-08-02T12:40:29;28.10;80.20
51655;DHT22;37732;53.106;7.030;2022-08-02T12:43:03;27.90;80.60
51655;DHT22;37732;53.106;7.030;2022-08-02T12:45:32;27.80;78.50
51655;DHT22;37732;53.106;7.030;2022-08-02T12:48:08;27.70;81.10
51655;DHT22;37732;53.106;7.030;2022-08-02T12:50:35;27.50;81.20
51655;DHT22;37732;53.106;7.030;2022-08-02T12:53:12;27.50;79.70
51655;DHT22;37732;53.106;7.030;2022-08-02T12:55:48;27.40;81.70
51655;DHT22;37732;53.106;7.030;2022-08-02T12:58:14;27.40;81.50
51655;DHT22;37732;53.106;7.030;2022-08-02T13:00:40;27.30;83.40
51655;DHT22;37732;53.106;7.030;2022-08-02T13:03:07;27.30;84.50
51655;DHT22;37732;53.106;7.030;2022-08-02T13:05:34;27.30;87.00
51655;DHT22;37732;53.106;7.030;2022-08-02T13:08:02;27.50;87.60
51655;DHT22;37732;53.106;7.030;2022-08-02T13:10:28;27.60;85.30
51655;DHT22;37732;53.106;7.030;2022-08-02T13:12:54;27.70;84.50
51655;DHT22;37732;53.106;7.030;2022-08-02T13:15:21;27.80;82.10
51655;DHT22;37732;53.106;7.030;2022-08-02T13:17:47;27.80;80.70
51655;DHT22;37732;53.106;7.030;2022-08-02T13:20:13;27.70;79.80
51655;DHT22;37732;53.106;7.030;2022-08-02T13:22:40;27.60;79.40
51655;DHT22;37732;53.106;7.030;2022-08-02T13:25:06;27.60;80.00
51655;DHT22;37732;53.106;7.030;2022-08-02T13:27:33;27.60;81.10
51655;DHT22;37732;53.106;7.030;2022-08-02T13:30:00;27.60;80.60
51655;DHT22;37732;53.106;7.030;2022-08-02T13:32:26;27.60;82.10
51655;DHT22;37732;53.106;7.030;2022-08-02T13:34:56;27.50;84.20
51655;DHT22;37732;53.106;7.030;2022-08-02T13:37:22;27.50;84.70
51655;DHT22;37732;53.106;7.030;2022-08-02T13:39:48;27.50;85.60
51655;DHT22;37732;53.106;7.030;2022-08-02T13:42:13;27.50;86.90
51655;DHT22;37732;53.106;7.030;2022-08-02T13:44:39;27.40;88.80
51655;DHT22;37732;53.106;7.030;2022-08-02T13:47:05;27.50;88.90
51655;DHT22;37732;53.106;7.030;2022-08-02T13:49:30;27.40;88.60
51655;DHT22;37732;53.106;7.030;2022-08-02T13:51:56;27.30;86.70
51655;DHT22;37732;53.106;7.030;2022-08-02T13:54:22;27.30;86.80
51655;DHT22;37732;53.106;7.030;2022-08-02T13:56:47;27.20;88.00
51655;DHT22;37732;53.106;7.030;2022-08-02T13:59:13;27.20;90.00
51655;DHT22;37732;53.106;7.030;2022-08-02T14:01:38;27.30;90.10
51655;DHT22;37732;53.106;7.030;2022-08-02T14:04:04;27.30;89.20
51655;DHT22;37732;53.106;7.030;2022-08-02T14:06:30;27.30;88.90
51655;DHT22;37732;53.106;7.030;2022-08-02T14:08:56;27.20;89.50
51655;DHT22;37732;53.106;7.030;2022-08-02T14:11:21;27.20;90.30
51655;DHT22;37732;53.106;7.030;2022-08-02T14:13:47;27.10;89.40
51655;DHT22;37732;53.106;7.030;2022-08-02T14:16:13;27.10;90.10
51655;DHT22;37732;53.106;7.030;2022-08-02T14:18:38;27.10;90.60
51655;DHT22;37732;53.106;7.030;2022-08-02T14:21:04;27.00;90.60
51655;DHT22;37732;53.106;7.030;2022-08-02T14:23:30;26.90;89.90
51655;DHT22;37732;53.106;7.030;2022-08-02T14:25:57;26.90;90.10
51655;DHT22;37732;53.106;7.030;2022-08-02T14:28:23;26.70;90.40
51655;DHT22;37732;53.106;7.030;2022-08-02T14:30:48;26.50;90.70
51655;DHT22;37732;53.106;7.030;2022-08-02T14:33:14;26.50;91.60
51655;DHT22;37732;53.106;7.030;2022-08-02T14:35:40;26.50;92.10
51655;DHT22;37732;53.106;7.030;2022-08-02T14:38:06;26.60;92.20
51655;DHT22;37732;53.106;7.030;2022-08-02T14:40:32;26.60;92.30
51655;DHT22;37732;53.106;7.030;2022-08-02T14:42:59;26.60;92.50
51655;DHT22;37732;53.106;7.030;2022-08-02T14:45:25;26.50;93.00
51655;DHT22;37732;53.106;7.030;2022-08-02T14:47:53;26.50;92.60
51655;DHT22;37732;53.106;7.030;2022-08-02T14:50:18;26.40;92.90
51655;DHT22;37732;53.106;7.030;2022-08-02T14:52:45;26.30;93.00
51655;DHT22;37732;53.106;7.030;2022-08-02T14:55:12;26.30;92.60
51655;DHT22;37732;53.106;7.030;2022-08-02T14:57:38;26.30;92.60
51655;DHT22;37732;53.106;7.030;2022-08-02T15:00:04;26.40;93.10
51655;DHT22;37732;53.106;7.030;2022-08-02T15:02:31;26.40;93.30
51655;DHT22;37732;53.106;7.030;2022-08-02T15:04:56;26.40;92.70
51655;DHT22;37732;53.106;7.030;2022-08-02T15:07:22;26.30;92.60
51655;DHT22;37732;53.106;7.030;2022-08-02T15:09:48;26.30;93.40
51655;DHT22;37732;53.106;7.030;2022-08-02T15:12:14;26.40;94.10
51655;DHT22;37732;53.106;7.030;2022-08-02T15:14:41;26.40;94.00
51655;DHT22;37732;53.106;7.030;2022-08-02T15:17:07;26.40;94.50
51655;DHT22;37732;53.106;7.030;2022-08-02T15:19:33;26.40;94.70
51655;DHT22;37732;53.106;7.030;2022-08-02T15:21:59;26.50;95.30
51655;DHT22;37732;53.106;7.030;2022-08-02T15:24:25;26.50;95.40
51655;DHT22;37732;53.106;7.030;2022-08-02T15:26:51;26.60;95.10
51655;DHT22;37732;53.106;7.030;2022-08-02T15:29:18;26.50;95.10
51655;DHT22;37732;53.106;7.030;2022-08-02T15:31:44;26.50;95.20
51655;DHT22;37732;53.106;7.030;2022-08-02T15:34:09;26.50;95.00
51655;DHT22;37732;53.106;7.030;2022-08-02T15:36:35;26.60;95.80
51655;DHT22;37732;53.106;7.030;2022-08-02T15:39:01;26.70;96.00
51655;DHT22;37732;53.106;7.030;2022-08-02T15:41:26;26.90;96.20
51655;DHT22;37732;53.106;7.030;2022-08-02T15:43:52;27.10;96.10
51655;DHT22;37732;53.106;7.030;2022-08-02T15:46:18;27.30;95.20
51655;DHT22;37732;53.106;7.030;2022-08-02T15:48:44;27.60;94.60
51655;DHT22;37732;53.106;7.030;2022-08-02T15:51:09;27.70;93.80
51655;DHT22;37732;53.106;7.030;2022-08-02T15:53:35;27.60;92.90
51655;DHT22;37732;53.106;7.030;2022-08-02T15:56:01;27.50;92.60
51655;DHT22;37732;53.106;7.030;2022-08-02T15:58:26;27.40;92.90
51655;DHT22;37732;53.106;7.030;2022-08-02T16:00:52;27.40;93.20
51655;DHT22;37732;53.106;7.030;2022-08-02T16:03:19;27.40;93.00
51655;DHT22;37732;53.106;7.030;2022-08-02T16:05:45;27.40;93.70
51655;DHT22;37732;53.106;7.030;2022-08-02T16:08:10;27.30;93.60
51655;DHT22;37732;53.106;7.030;2022-08-02T16:10:36;27.20;93.30
51655;DHT22;37732;53.106;7.030;2022-08-02T16:13:02;27.20;93.40
51655;DHT22;37732;53.106;7.030;2022-08-02T16:15:46;27.20;93.90
51655;DHT22;37732;53.106;7.030;2022-08-02T16:18:12;27.20;94.00